Time;durP1;ratioP1;P1;durP2;ratioP2;P2;SDS_P1;SDS_P2;PMS_P1;PMS_P2;Temp;Humidity;BMP_temperature;BMP_pressure;BME280_temperature;BME280_humidity;BME280_pressure;Samples;Min_cycle;Max_cycle;Signal;HPM_P1;HPM_P2
2023/01/27 00:01:08;;;;;;;12.05;3.42;;;5.80;99.90;;;;;;5084167;28;20031;-43
2023/01/27 00:03:33;;;;;;;10.13;3.15;;;5.80;99.90;;;;;;5084647;28;20050;-44
2023/01/27 00:05:59;;;;;;;7.57;3.25;;;5.80;99.90;;;;;;5084274;28;20107;-44
2023/01/27 00:08:26;;;;;;;9.38;2.78;;;5.80;99.90;;;;;;5084496;28;20107;-43
2023/01/27 00:13:25;;;;;;;7.75;3.05;;;5.80;99.90;;;;;;5083787;28;20035;-42
2023/01/27 00:13:42;;;;;;;6.47;3.08;;;5.80;99.90;;;;;;5083734;28;20048;-42
2023/01/27 00:16:08;;;;;;;7.60;2.80;;;5.80;99.90;;;;;;5084227;28;20040;-43
2023/01/27 00:18:33;;;;;;;10.45;3.25;;;5.80;99.90;;;;;;5083711;28;20054;-43
2023/01/27 00:26:27;;;;;;;7.60;2.80;;;5.80;99.90;;;;;;5082151;28;20039;-43
2023/01/27 00:28:53;;;;;;;11.50;3.28;;;5.80;99.90;;;;;;5083357;28;20032;-43
2023/01/27 00:34:09;;;;;;;9.18;3.17;;;5.80;99.90;;;;;;5063879;28;20051;-43
2023/01/27 00:36:40;;;;;;;9.43;2.95;;;5.80;99.90;;;;;;5079330;28;20739;-43
2023/01/27 00:39:08;;;;;;;11.10;2.95;;;5.80;99.90;;;;;;5064022;28;20031;-43
2023/01/27 00:41:34;;;;;;;7.28;2.70;;;5.70;99.90;;;;;;5077400;28;20478;-42
2023/01/27 00:44:00;;;;;;;7.20;3.42;;;5.70;99.90;;;;;;5083325;28;20417;-43
2023/01/27 00:46:26;;;;;;;7.63;3.22;;;5.80;99.90;;;;;;5083690;28;20045;-43
2023/01/27 00:48:52;;;;;;;9.23;3.42;;;5.70;99.90;;;;;;5083607;28;20912;-44
2023/01/27 00:51:18;;;;;;;9.52;3.47;;;5.70;99.90;;;;;;5083755;28;20032;-44
2023/01/27 00:53:44;;;;;;;10.50;3.47;;;5.70;99.90;;;;;;5083887;28;20051;-44
2023/01/27 00:56:10;;;;;;;6.20;2.97;;;5.60;99.90;;;;;;5082839;28;20016;-43
2023/01/27 00:58:36;;;;;;;6.55;2.92;;;5.60;99.90;;;;;;5082994;28;20043;-43
2023/01/27 01:01:05;;;;;;;10.18;3.15;;;5.70;99.90;;;;;;5083741;28;20024;-42
2023/01/27 01:03:32;;;;;;;7.22;3.00;;;5.60;99.90;;;;;;5081220;28;20016;-43
2023/01/27 01:06:05;;;;;;;7.20;3.30;;;5.70;99.90;;;;;;5083200;28;20184;-43
2023/01/27 01:08:31;;;;;;;10.65;3.38;;;5.70;99.90;;;;;;5084232;28;20420;-41
2023/01/27 01:10:57;;;;;;;6.90;3.40;;;5.70;99.90;;;;;;5083265;28;20064;-44
2023/01/27 01:13:23;;;;;;;7.55;2.70;;;5.70;99.90;;;;;;5083851;28;20138;-43
2023/01/27 01:15:48;;;;;;;8.25;3.22;;;5.60;99.90;;;;;;5083689;28;20028;-43
2023/01/27 01:18:14;;;;;;;7.00;3.30;;;5.70;99.90;;;;;;5081898;28;20629;-42
2023/01/27 01:20:44;;;;;;;9.07;3.65;;;5.70;99.90;;;;;;5083084;28;20031;-43
2023/01/27 01:23:11;;;;;;;10.18;4.03;;;5.60;99.90;;;;;;5082708;28;20024;-43
2023/01/27 01:25:36;;;;;;;8.85;3.70;;;5.60;99.90;;;;;;5081743;28;20787;-43
2023/01/27 01:28:04;;;;;;;8.85;4.28;;;5.60;99.90;;;;;;5082544;28;20036;-43
2023/01/27 01:30:30;;;;;;;9.93;4.00;;;5.60;99.90;;;;;;5082424;28;20873;-43
2023/01/27 01:32:56;;;;;;;8.38;4.75;;;5.60;99.90;;;;;;5083226;28;20656;-43
2023/01/27 01:35:25;;;;;;;9.07;4.60;;;5.50;99.90;;;;;;5083044;28;20577;-43
2023/01/27 01:37:52;;;;;;;7.63;5.15;;;5.50;99.90;;;;;;5081120;28;20023;-43
2023/01/27 01:40:19;;;;;;;8.85;5.32;;;5.50;99.90;;;;;;5083018;28;20028;-44
2023/01/27 01:43:10;;;;;;;9.68;5.88;;;5.50;99.90;;;;;;5082347;28;20142;-44
2023/01/27 01:45:46;;;;;;;9.90;5.38;;;5.40;99.90;;;;;;5082256;28;20111;-43
2023/01/27 01:48:24;;;;;;;13.25;5.85;;;5.40;99.90;;;;;;5082781;28;20027;-43
2023/01/27 01:50:56;;;;;;;12.05;5.70;;;5.40;99.90;;;;;;5081979;28;20065;-43
2023/01/27 01:53:28;;;;;;;8.75;5.10;;;5.40;99.90;;;;;;5081861;28;20028;-43
2023/01/27 01:55:56;;;;;;;14.57;5.47;;;5.40;99.90;;;;;;5082539;28;20023;-44
2023/01/27 01:58:23;;;;;;;12.38;6.32;;;5.40;99.90;;;;;;5082324;28;20495;-44
2023/01/27 02:00:49;;;;;;;17.42;7.63;;;5.40;99.90;;;;;;5082703;28;20031;-43
2023/01/27 02:03:15;;;;;;;10.98;5.68;;;5.40;99.90;;;;;;5082223;28;20094;-43
2023/01/27 02:05:43;;;;;;;10.50;5.32;;;5.40;99.90;;;;;;5070603;28;20114;-43
2023/01/27 02:08:32;;;;;;;10.65;5.57;;;5.40;99.90;;;;;;5082259;28;20028;-43
2023/01/27 02:10:58;;;;;;;9.05;5.75;;;5.40;99.90;;;;;;5072310;28;20043;-43
2023/01/27 02:13:23;;;;;;;11.73;6.07;;;5.40;99.90;;;;;;5081196;28;20108;-43
2023/01/27 02:15:52;;;;;;;13.07;7.30;;;5.40;99.90;;;;;;5081288;28;20024;-43
2023/01/27 02:18:17;;;;;;;10.55;6.05;;;5.40;99.90;;;;;;5082341;28;20043;-43
2023/01/27 02:20:44;;;;;;;11.00;6.95;;;5.50;99.90;;;;;;5081278;28;20024;-43
2023/01/27 02:23:30;;;;;;;13.48;6.47;;;5.40;99.90;;;;;;5082214;28;20083;-43
2023/01/27 02:25:55;;;;;;;10.75;6.35;;;5.40;99.90;;;;;;5082067;28;20101;-43
2023/01/27 02:28:21;;;;;;;11.65;6.05;;;5.40;99.90;;;;;;5081779;28;20566;-43
2023/01/27 02:30:47;;;;;;;13.27;6.55;;;5.50;99.90;;;;;;5081783;28;20513;-42
2023/01/27 02:33:14;;;;;;;14.10;7.88;;;5.50;99.90;;;;;;5082023;28;20267;-42
2023/01/27 02:36:11;;;;;;;14.18;8.25;;;5.40;99.90;;;;;;5080777;28;20106;-43
2023/01/27 02:38:41;;;;;;;16.58;8.02;;;5.40;99.90;;;;;;5081773;28;20389;-43
2023/01/27 02:41:18;;;;;;;13.98;7.65;;;5.40;99.90;;;;;;5081385;28;20055;-43
2023/01/27 02:43:44;;;;;;;15.80;8.50;;;5.40;99.90;;;;;;5081860;28;20057;-43
2023/01/27 02:46:09;;;;;;;15.02;8.98;;;5.40;99.90;;;;;;5082247;28;20031;-43
2023/01/27 02:48:35;;;;;;;14.88;8.85;;;5.40;99.90;;;;;;5081936;28;20031;-43
2023/01/27 02:51:00;;;;;;;13.25;8.25;;;5.40;99.90;;;;;;5081406;28;20536;-42
2023/01/27 02:53:26;;;;;;;18.27;9.60;;;5.40;99.90;;;;;;5081813;28;20065;-44
2023/01/27 02:55:51;;;;;;;15.82;9.40;;;5.40;99.90;;;;;;5080870;28;20023;-42
2023/01/27 02:58:17;;;;;;;18.13;10.70;;;5.40;99.90;;;;;;5081817;28;20028;-42
2023/01/27 03:00:43;;;;;;;19.63;12.23;;;5.40;99.90;;;;;;5080850;28;20538;-43
2023/01/27 03:03:08;;;;;;;16.48;10.45;;;5.40;99.90;;;;;;5081259;28;20403;-43
2023/01/27 03:05:34;;;;;;;18.27;11.13;;;5.40;99.90;;;;;;5081549;28;20020;-44
2023/01/27 03:08:02;;;;;;;17.02;11.10;;;5.40;99.90;;;;;;5081288;28;20492;-44
2023/01/27 03:10:28;;;;;;;17.27;10.05;;;5.40;99.90;;;;;;5081041;28;20051;-46
2023/01/27 03:12:53;;;;;;;18.23;11.00;;;5.30;99.90;;;;;;5081059;28;20111;-43
2023/01/27 03:18:38;;;;;;;15.80;10.85;;;5.30;99.90;;;;;;5080610;28;20111;-43
2023/01/27 03:21:03;;;;;;;18.90;12.98;;;5.30;99.90;;;;;;5078757;28;20121;-44
2023/01/27 03:23:33;;;;;;;17.52;11.80;;;5.30;99.90;;;;;;5080611;28;20475;-44
2023/01/27 03:26:00;;;;;;;16.02;11.45;;;5.30;99.90;;;;;;5082111;28;20032;-44
2023/01/27 03:28:26;;;;;;;17.38;12.93;;;5.30;99.90;;;;;;5074405;28;20020;-43
2023/01/27 03:31:01;;;;;;;17.40;10.98;;;5.30;99.90;;;;;;5084889;28;20024;-42
2023/01/27 03:33:28;;;;;;;16.38;11.60;;;5.30;99.90;;;;;;5085946;28;20388;-44
2023/01/27 03:46:50;;;;;;;14.80;10.50;;;5.30;99.90;;;;;;5085046;28;20486;-42
2023/01/27 03:49:15;;;;;;;19.40;11.65;;;5.30;99.90;;;;;;5085692;28;20471;-42
2023/01/27 03:51:41;;;;;;;17.23;10.73;;;5.30;99.90;;;;;;5084675;28;20032;-43
2023/01/27 03:54:08;;;;;;;13.35;10.77;;;5.30;99.90;;;;;;5084110;28;20046;-43
2023/01/27 03:56:34;;;;;;;12.95;10.07;;;5.30;99.90;;;;;;5084904;28;20028;-44
2023/01/27 03:58:59;;;;;;;14.32;9.90;;;5.30;99.90;;;;;;5083897;28;20733;-43
2023/01/27 04:01:25;;;;;;;13.23;10.40;;;5.40;99.90;;;;;;5085219;28;20388;-42
2023/01/27 04:07:01;;;;;;;12.32;9.75;;;5.40;99.90;;;;;;5084122;28;20058;-43
2023/01/27 04:09:35;;;;;;;10.27;7.75;;;5.40;99.90;;;;;;5084794;28;20102;-43
2023/01/27 04:12:04;;;;;;;10.55;8.48;;;5.40;99.90;;;;;;5084678;28;20069;-44
2023/01/27 04:14:30;;;;;;;9.48;7.70;;;5.40;99.90;;;;;;5083976;28;20035;-43
2023/01/27 04:17:03;;;;;;;10.07;7.82;;;5.40;99.90;;;;;;5084137;28;20097;-44
2023/01/27 04:19:29;;;;;;;8.68;6.80;;;5.40;99.90;;;;;;5083815;28;20443;-43
2023/01/27 04:21:56;;;;;;;7.78;6.63;;;5.40;99.90;;;;;;5082703;28;20115;-43
2023/01/27 04:24:22;;;;;;;9.15;7.35;;;5.50;99.90;;;;;;5082718;28;20028;-43
2023/01/27 04:26:49;;;;;;;8.38;6.90;;;5.50;99.90;;;;;;5084179;28;20051;-43
2023/01/27 04:29:16;;;;;;;8.73;7.28;;;5.50;99.90;;;;;;5083876;28;20043;-43
2023/01/27 04:31:41;;;;;;;9.40;7.32;;;5.50;99.90;;;;;;5084522;28;20357;-43
2023/01/27 04:34:09;;;;;;;10.35;8.00;;;5.50;99.90;;;;;;5082655;28;20097;-43
2023/01/27 04:36:34;;;;;;;9.95;7.78;;;5.50;99.90;;;;;;5083817;28;20032;-42
2023/01/27 04:39:00;;;;;;;9.63;6.78;;;5.50;99.90;;;;;;5083548;28;20031;-43
2023/01/27 04:41:26;;;;;;;8.55;7.10;;;5.50;99.90;;;;;;5083208;28;20095;-42
2023/01/27 04:43:51;;;;;;;9.40;6.97;;;5.50;99.90;;;;;;5083488;28;20028;-43
2023/01/27 04:46:17;;;;;;;8.02;6.90;;;5.50;99.90;;;;;;5084049;28;20055;-43
2023/01/27 04:48:42;;;;;;;8.10;6.63;;;5.50;99.90;;;;;;5082638;28;20052;-43
2023/01/27 04:51:08;;;;;;;8.05;6.45;;;5.60;99.90;;;;;;5083420;28;20129;-43
2023/01/27 04:53:33;;;;;;;7.78;6.32;;;5.60;99.90;;;;;;5083171;28;20043;-44
2023/01/27 04:56:05;;;;;;;8.40;6.75;;;5.60;99.90;;;;;;5082594;28;20073;-44
2023/01/27 04:58:31;;;;;;;6.95;6.00;;;5.60;99.90;;;;;;5083213;28;20055;-43
2023/01/27 05:00:57;;;;;;;10.02;6.72;;;5.60;99.90;;;;;;5083363;28;20032;-44
2023/01/27 05:03:22;;;;;;;7.78;6.75;;;5.60;99.90;;;;;;5082959;28;20509;-42
2023/01/27 05:05:48;;;;;;;9.00;6.55;;;5.60;99.90;;;;;;5082620;28;20519;-43
2023/01/27 05:08:13;;;;;;;7.65;6.10;;;5.60;99.90;;;;;;5083620;28;20036;-43
2023/01/27 05:10:42;;;;;;;8.10;6.45;;;5.60;99.90;;;;;;5082965;28;20497;-42
2023/01/27 05:13:08;;;;;;;6.18;5.53;;;5.60;99.90;;;;;;5083000;28;20157;-42
2023/01/27 05:15:33;;;;;;;6.55;5.85;;;5.60;99.90;;;;;;5082472;28;20398;-43
2023/01/27 05:17:59;;;;;;;8.60;6.45;;;5.60;99.90;;;;;;5082525;28;20062;-43
2023/01/27 05:20:24;;;;;;;7.07;5.50;;;5.60;99.90;;;;;;5083469;28;20169;-42
2023/01/27 05:22:50;;;;;;;6.60;5.15;;;5.60;99.90;;;;;;5082571;28;20922;-42
2023/01/27 05:25:16;;;;;;;6.15;5.03;;;5.60;99.90;;;;;;5083997;28;20020;-43
2023/01/27 05:27:42;;;;;;;7.90;5.47;;;5.60;99.90;;;;;;5083385;28;20028;-43
2023/01/27 05:30:08;;;;;;;6.93;5.40;;;5.60;99.90;;;;;;5082173;28;20152;-43
2023/01/27 05:32:33;;;;;;;6.50;5.20;;;5.60;99.90;;;;;;5083066;28;20816;-43
2023/01/27 05:34:59;;;;;;;6.32;4.80;;;5.70;99.90;;;;;;5082724;28;20495;-44
2023/01/27 05:37:25;;;;;;;5.57;4.88;;;5.70;99.90;;;;;;5082843;28;20028;-44
2023/01/27 05:39:50;;;;;;;5.65;4.85;;;5.70;99.90;;;;;;5082962;28;20028;-43
2023/01/27 05:42:16;;;;;;;5.07;4.57;;;5.70;99.90;;;;;;5081648;28;20019;-42
2023/01/27 05:44:41;;;;;;;6.30;4.63;;;5.70;99.90;;;;;;5082332;28;20455;-43
2023/01/27 05:47:07;;;;;;;5.53;4.32;;;5.70;99.90;;;;;;5082076;28;20443;-43
2023/01/27 05:49:32;;;;;;;5.55;4.32;;;5.70;99.90;;;;;;5081761;28;20032;-43
2023/01/27 05:51:58;;;;;;;4.60;4.20;;;5.70;99.90;;;;;;5081542;28;20456;-42
2023/01/27 05:54:23;;;;;;;5.32;4.00;;;5.70;99.90;;;;;;5083011;28;20054;-43
2023/01/27 05:56:49;;;;;;;5.03;4.53;;;5.70;99.90;;;;;;5082180;28;20557;-43
2023/01/27 05:59:14;;;;;;;6.45;4.60;;;5.70;99.90;;;;;;5081546;28;20468;-43
2023/01/27 06:01:40;;;;;;;5.40;4.45;;;5.70;99.90;;;;;;5082659;28;20024;-42
2023/01/27 06:04:06;;;;;;;4.55;4.15;;;5.70;99.90;;;;;;5082171;28;20024;-44
2023/01/27 06:06:32;;;;;;;5.05;4.40;;;5.70;99.90;;;;;;5081304;28;20023;-43
2023/01/27 06:08:58;;;;;;;4.88;4.15;;;5.70;99.90;;;;;;5082555;28;20020;-43
2023/01/27 06:11:25;;;;;;;5.95;4.85;;;5.70;99.90;;;;;;5082228;28;20080;-43
2023/01/27 06:13:52;;;;;;;5.55;5.05;;;5.70;99.90;;;;;;5080951;28;20024;-44
2023/01/27 06:16:19;;;;;;;5.85;4.88;;;5.70;99.90;;;;;;5081968;28;20046;-44
2023/01/27 06:18:46;;;;;;;5.82;5.20;;;5.60;99.90;;;;;;5081299;28;20579;-44
2023/01/27 06:21:14;;;;;;;6.55;5.38;;;5.60;99.90;;;;;;5082148;28;20020;-42
2023/01/27 06:23:39;;;;;;;5.78;4.72;;;5.60;99.90;;;;;;5081704;28;20123;-43
2023/01/27 06:26:16;;;;;;;5.30;4.75;;;5.60;99.90;;;;;;5081512;28;20103;-44
2023/01/27 06:28:42;;;;;;;6.13;4.75;;;5.60;99.90;;;;;;5081680;28;20585;-44
2023/01/27 06:31:11;;;;;;;5.10;4.55;;;5.60;99.90;;;;;;5082008;28;20055;-43
2023/01/27 06:33:37;;;;;;;6.05;4.57;;;5.60;99.90;;;;;;5080473;28;20024;-43
2023/01/27 06:36:06;;;;;;;5.18;4.18;;;5.60;99.90;;;;;;5081584;28;20769;-42
2023/01/27 06:38:32;;;;;;;6.30;4.93;;;5.60;99.90;;;;;;5082011;28;20024;-43
2023/01/27 06:40:58;;;;;;;5.68;4.70;;;5.50;99.90;;;;;;5080758;28;20042;-44
2023/01/27 06:43:24;;;;;;;5.93;4.53;;;5.50;99.90;;;;;;5081473;28;20024;-43
2023/01/27 06:45:50;;;;;;;5.72;4.32;;;5.50;99.90;;;;;;5081979;28;20032;-43
2023/01/27 06:48:19;;;;;;;4.55;4.15;;;5.50;99.90;;;;;;5080930;28;20065;-43
2023/01/27 06:50:47;;;;;;;4.68;4.22;;;5.50;99.90;;;;;;5081754;28;20030;-43
2023/01/27 06:53:13;;;;;;;4.47;4.07;;;5.40;99.90;;;;;;5081760;28;20160;-41
2023/01/27 06:55:42;;;;;;;5.18;4.53;;;5.40;99.90;;;;;;5078621;28;20028;-43
2023/01/27 06:58:09;;;;;;;5.43;4.60;;;5.40;99.90;;;;;;5080405;28;20020;-44
2023/01/27 07:00:39;;;;;;;4.63;4.22;;;5.40;99.90;;;;;;5080772;28;20032;-44
2023/01/27 07:03:05;;;;;;;5.38;4.55;;;5.40;99.90;;;;;;5079332;28;20027;-42
2023/01/27 07:05:33;;;;;;;4.35;3.95;;;5.40;99.90;;;;;;5079668;28;20092;-42
2023/01/27 07:07:59;;;;;;;4.50;4.00;;;5.40;99.90;;;;;;5079409;28;20024;-43
2023/01/27 07:10:24;;;;;;;4.00;3.60;;;5.40;99.90;;;;;;5077095;28;20544;-43
2023/01/27 07:13:02;;;;;;;4.43;3.85;;;5.40;99.90;;;;;;5080737;28;20032;-42
2023/01/27 07:15:29;;;;;;;4.43;4.03;;;5.30;99.90;;;;;;5078411;28;20044;-43
2023/01/27 07:17:57;;;;;;;5.25;4.20;;;5.20;99.90;;;;;;5080425;28;20032;-42
2023/01/27 07:20:26;;;;;;;4.43;4.03;;;5.20;99.90;;;;;;5079728;28;20029;-43
2023/01/27 07:22:52;;;;;;;6.35;5.22;;;5.10;99.90;;;;;;5079932;28;20038;-42
2023/01/27 07:25:18;;;;;;;6.10;4.53;;;5.10;99.90;;;;;;5080515;28;20036;-44
2023/01/27 07:27:43;;;;;;;5.68;4.00;;;4.90;99.90;;;;;;5079914;28;20105;-43
2023/01/27 07:30:10;;;;;;;4.80;4.30;;;4.90;99.90;;;;;;5079945;28;20134;-43
2023/01/27 07:32:36;;;;;;;4.22;3.90;;;4.90;99.90;;;;;;5080510;28;20215;-43
2023/01/27 07:35:01;;;;;;;5.05;3.70;;;4.80;99.90;;;;;;5080632;28;20785;-43
2023/01/27 07:37:27;;;;;;;4.93;4.15;;;4.80;99.90;;;;;;5080874;28;20020;-43
2023/01/27 07:39:52;;;;;;;3.70;3.40;;;4.80;99.90;;;;;;5080752;28;20035;-40
2023/01/27 07:42:18;;;;;;;4.70;3.90;;;4.70;99.90;;;;;;5081702;28;20196;-42
2023/01/27 07:44:43;;;;;;;4.25;3.33;;;4.70;99.90;;;;;;5079511;28;20047;-43
2023/01/27 07:47:12;;;;;;;3.67;3.38;;;4.70;99.90;;;;;;5079792;28;20502;-43
2023/01/27 07:49:37;;;;;;;4.43;3.72;;;4.60;99.90;;;;;;5080479;28;20046;-43
2023/01/27 07:52:03;;;;;;;3.80;3.40;;;4.60;99.90;;;;;;5080143;28;20380;-44
2023/01/27 07:54:28;;;;;;;3.55;3.20;;;4.60;99.90;;;;;;5080184;28;20571;-43
2023/01/27 07:56:54;;;;;;;3.50;3.20;;;4.60;99.90;;;;;;5080439;28;20020;-44
2023/01/27 07:59:19;;;;;;;3.92;3.40;;;4.70;99.90;;;;;;5080017;28;20500;-43
2023/01/27 08:01:45;;;;;;;3.63;3.33;;;4.70;99.90;;;;;;5080410;28;20073;-43
2023/01/27 08:04:11;;;;;;;5.43;3.78;;;4.80;99.90;;;;;;5080317;28;20016;-43
2023/01/27 08:06:39;;;;;;;4.30;3.00;;;4.80;99.90;;;;;;5080513;28;20035;-43
2023/01/27 08:09:05;;;;;;;4.55;3.60;;;4.80;99.90;;;;;;5080015;28;20020;-43
2023/01/27 08:11:31;;;;;;;3.30;3.00;;;4.80;99.90;;;;;;5081207;28;20020;-44
2023/01/27 08:13:56;;;;;;;3.72;3.17;;;4.90;99.90;;;;;;5084025;28;20148;-44
2023/01/27 08:16:22;;;;;;;3.35;3.05;;;4.90;99.90;;;;;;5084746;28;20099;-43
2023/01/27 08:18:47;;;;;;;3.45;3.15;;;5.00;99.90;;;;;;5084281;28;20703;-43
2023/01/27 08:21:13;;;;;;;3.10;2.90;;;5.00;99.90;;;;;;5083954;28;20456;-45
2023/01/27 08:23:41;;;;;;;3.80;3.20;;;5.00;99.90;;;;;;5084038;28;20078;-44
2023/01/27 08:26:07;;;;;;;3.33;2.60;;;5.10;99.90;;;;;;5083863;28;20022;-44
2023/01/27 08:28:34;;;;;;;3.30;3.00;;;5.10;99.90;;;;;;5084100;28;20024;-44
2023/01/27 08:31:09;;;;;;;3.35;2.60;;;5.20;99.90;;;;;;5083798;28;20093;-45
2023/01/27 08:33:35;;;;;;;3.17;2.88;;;5.20;99.90;;;;;;5082423;28;20028;-44
2023/01/27 08:36:07;;;;;;;4.68;2.78;;;5.20;99.90;;;;;;5083277;28;20051;-44
2023/01/27 08:38:33;;;;;;;3.45;2.70;;;5.20;99.90;;;;;;5084349;28;20119;-44
2023/01/27 08:41:06;;;;;;;4.22;3.38;;;5.20;99.90;;;;;;5083201;28;20061;-43
2023/01/27 08:43:31;;;;;;;;;;;5.20;99.90;;;;;;5080368;28;20028;-43
2023/01/27 08:45:59;;;;;;;3.38;2.50;;;5.20;99.90;;;;;;5083750;28;19912;-43
2023/01/27 08:48:24;;;;;;;3.35;2.72;;;5.20;99.90;;;;;;5083060;28;20066;-44
2023/01/27 08:50:50;;;;;;;4.70;3.10;;;5.20;99.90;;;;;;5084252;28;20028;-44
2023/01/27 08:53:16;;;;;;;5.53;4.10;;;5.30;99.90;;;;;;5083917;28;20078;-44
2023/01/27 08:55:41;;;;;;;5.30;3.70;;;5.30;99.90;;;;;;5082652;28;20040;-43
2023/01/27 08:58:07;;;;;;;4.25;3.30;;;5.30;99.90;;;;;;5082669;28;20038;-43
2023/01/27 09:00:32;;;;;;;4.20;3.55;;;5.30;99.90;;;;;;5083106;28;20031;-43
2023/01/27 09:02:58;;;;;;;4.18;3.20;;;5.30;99.90;;;;;;5082674;28;20104;-44
2023/01/27 09:05:24;;;;;;;3.70;3.28;;;5.30;99.90;;;;;;5083426;28;20054;-44
2023/01/27 09:07:49;;;;;;;3.75;3.30;;;5.30;99.90;;;;;;5082433;28;20593;-43
2023/01/27 09:10:15;;;;;;;3.75;3.25;;;5.30;99.90;;;;;;5082526;28;20468;-44
2023/01/27 09:12:42;;;;;;;3.50;3.20;;;5.30;99.90;;;;;;5083592;28;20715;-44
2023/01/27 09:15:08;;;;;;;3.45;3.05;;;5.30;99.90;;;;;;5081650;28;20847;-33
2023/01/27 09:17:37;;;;;;;3.45;3.13;;;5.30;99.90;;;;;;5083054;28;20028;-34
2023/01/27 09:20:03;;;;;;;5.03;3.00;;;5.40;99.90;;;;;;5083554;28;20039;-33
2023/01/27 09:22:28;;;;;;;4.88;2.90;;;5.40;99.90;;;;;;5081869;28;20483;-34
2023/01/27 09:24:54;;;;;;;3.70;3.00;;;5.40;99.90;;;;;;5081478;28;20031;-35
2023/01/27 09:27:19;;;;;;;4.25;3.42;;;5.40;99.90;;;;;;5083374;28;20020;-34
2023/01/27 09:29:45;;;;;;;4.75;3.72;;;5.40;99.90;;;;;;5082346;28;20054;-34
2023/01/27 09:32:11;;;;;;;4.53;3.95;;;5.30;99.90;;;;;;5083187;28;20158;-34
2023/01/27 09:34:37;;;;;;;6.40;4.43;;;5.30;99.90;;;;;;5080488;28;20238;-33
2023/01/27 09:37:11;;;;;;;6.07;4.28;;;5.30;99.90;;;;;;5062254;28;20056;-35
2023/01/27 09:39:43;;;;;;;4.88;4.18;;;5.30;99.90;;;;;;5078290;28;20024;-33
2023/01/27 09:42:24;;;;;;;5.35;3.78;;;5.30;99.90;;;;;;5083136;28;20030;-34
2023/01/27 09:45:23;;;;;;;4.28;3.88;;;5.30;99.90;;;;;;5081317;28;20047;-34
2023/01/27 09:48:17;;;;;;;5.75;4.28;;;5.30;99.90;;;;;;5062155;28;20028;-35
2023/01/27 09:50:46;;;;;;;4.38;3.78;;;5.30;99.90;;;;;;5081761;28;20056;-35
2023/01/27 09:53:14;;;;;;;4.55;3.95;;;5.30;99.90;;;;;;5082867;28;20020;-35
2023/01/27 09:56:03;;;;;;;4.15;3.75;;;5.30;99.90;;;;;;5082002;28;20036;-33
2023/01/27 09:59:08;;;;;;;4.15;3.75;;;5.30;99.90;;;;;;5081440;28;20020;-34
2023/01/27 10:01:42;;;;;;;5.03;4.07;;;5.30;99.90;;;;;;5070432;28;20032;-34
2023/01/27 10:04:13;;;;;;;4.35;3.88;;;5.30;99.90;;;;;;5081498;28;20020;-34
2023/01/27 10:06:44;;;;;;;4.25;3.85;;;5.30;99.90;;;;;;5082540;28;20040;-33
2023/01/27 10:09:37;;;;;;;4.72;3.85;;;5.30;99.90;;;;;;5081812;28;20039;-35
2023/01/27 10:12:11;;;;;;;4.07;3.65;;;5.30;99.90;;;;;;5071338;28;20027;-34
2023/01/27 10:15:05;;;;;;;4.03;3.63;;;5.40;99.90;;;;;;5082001;28;20604;-33
2023/01/27 10:17:59;;;;;;;4.75;3.65;;;5.40;99.90;;;;;;5074777;28;20156;-35
2023/01/27 10:20:45;;;;;;;3.92;3.53;;;5.40;99.90;;;;;;5082354;28;20539;-34
2023/01/27 10:23:19;;;;;;;5.00;4.35;;;5.40;99.90;;;;;;5082175;28;20059;-34
2023/01/27 10:26:08;;;;;;;4.45;4.03;;;5.40;99.90;;;;;;5081861;28;20036;-34
2023/01/27 10:28:36;;;;;;;4.38;3.95;;;5.40;99.90;;;;;;5082086;28;20035;-35
2023/01/27 10:31:10;;;;;;;3.92;3.40;;;5.40;99.90;;;;;;5081512;28;20020;-33
2023/01/27 10:33:46;;;;;;;3.97;3.58;;;5.50;99.90;;;;;;5081857;28;20028;-34
2023/01/27 10:36:29;;;;;;;3.75;3.45;;;5.50;99.90;;;;;;5080920;28;20052;-35
2023/01/27 10:39:16;;;;;;;4.95;3.83;;;5.60;99.90;;;;;;5081385;28;20104;-34
2023/01/27 10:42:10;;;;;;;4.05;3.45;;;5.60;99.90;;;;;;5081654;28;20116;-34
2023/01/27 10:44:56;;;;;;;4.18;3.78;;;5.70;99.90;;;;;;5068394;28;20024;-34
2023/01/27 10:47:36;;;;;;;4.80;4.32;;;5.70;99.90;;;;;;5081064;28;20805;-34
2023/01/27 10:50:12;;;;;;;4.80;4.40;;;5.70;99.90;;;;;;5081948;28;20123;-34
2023/01/27 10:52:45;;;;;;;6.03;4.40;;;5.70;99.90;;;;;;5081566;28;20036;-35
2023/01/27 10:55:24;;;;;;;4.88;4.15;;;5.60;99.90;;;;;;5080998;28;20047;-34
2023/01/27 10:57:58;;;;;;;4.97;4.45;;;5.70;99.90;;;;;;5081830;28;20020;-34
2023/01/27 11:00:30;;;;;;;4.97;4.47;;;5.60;99.90;;;;;;5081308;28;20035;-34
2023/01/27 11:03:02;;;;;;;5.05;4.38;;;5.70;99.90;;;;;;5080742;28;20016;-34
2023/01/27 11:05:36;;;;;;;4.80;4.25;;;5.70;99.90;;;;;;5080977;28;20040;-34
2023/01/27 11:08:18;;;;;;;4.75;4.22;;;5.70;99.90;;;;;;5080377;28;20420;-34
2023/01/27 11:13:48;;;;;;;4.22;3.83;;;5.70;99.90;;;;;;5078027;28;20101;-34
2023/01/27 11:16:18;;;;;;;5.38;4.25;;;5.70;99.90;;;;;;5080350;28;20028;-33
2023/01/27 11:18:45;;;;;;;4.38;3.92;;;5.70;99.90;;;;;;5077393;28;20039;-33
2023/01/27 11:21:20;;;;;;;4.07;3.67;;;5.70;99.90;;;;;;5080590;28;20024;-34
2023/01/27 11:23:54;;;;;;;4.68;4.28;;;5.70;99.90;;;;;;5079638;28;20566;-33
2023/01/27 11:26:39;;;;;;;4.68;3.80;;;5.80;99.90;;;;;;5080589;28;20360;-34
2023/01/27 11:29:30;;;;;;;4.63;4.22;;;5.80;99.90;;;;;;5080525;28;20024;-34
2023/01/27 11:32:03;;;;;;;4.75;4.35;;;5.90;99.90;;;;;;5081168;28;20020;-34
2023/01/27 11:34:40;;;;;;;4.43;4.03;;;5.90;99.90;;;;;;5080547;28;20109;-34
2023/01/27 11:37:42;;;;;;;5.60;4.45;;;6.00;99.90;;;;;;5079674;28;20020;-34
2023/01/27 11:40:36;;;;;;;4.22;3.80;;;6.00;99.90;;;;;;5070583;28;20043;-33
2023/01/27 11:43:03;;;;;;;4.68;3.92;;;6.10;99.90;;;;;;5080276;28;20044;-33
2023/01/27 11:45:33;;;;;;;4.90;4.10;;;6.10;99.90;;;;;;5081191;28;20024;-34
2023/01/27 11:48:01;;;;;;;4.60;3.90;;;6.20;99.90;;;;;;5084024;28;20139;-33
2023/01/27 11:50:33;;;;;;;4.28;3.85;;;6.20;99.90;;;;;;5084366;28;20024;-33
2023/01/27 11:53:25;;;;;;;5.45;3.92;;;6.20;99.90;;;;;;5084782;28;20050;-33
2023/01/27 11:56:01;;;;;;;3.33;3.05;;;6.20;99.90;;;;;;5084888;28;20047;-33
2023/01/27 11:58:32;;;;;;;5.50;3.78;;;6.20;99.90;;;;;;5084522;28;20055;-38
2023/01/27 12:01:02;;;;;;;5.50;4.90;;;6.30;99.90;;;;;;5084154;28;20020;-34
2023/01/27 12:03:46;;;;;;;4.85;4.05;;;6.30;99.90;;;;;;5083398;28;20059;-34
2023/01/27 12:06:21;;;;;;;4.13;3.60;;;6.30;99.90;;;;;;5084461;28;20658;-33
2023/01/27 12:08:48;;;;;;;4.00;3.60;;;6.30;99.90;;;;;;5084698;28;20028;-34
2023/01/27 12:11:30;;;;;;;3.63;3.33;;;6.30;99.90;;;;;;5083888;28;20035;-34
2023/01/27 12:14:00;;;;;;;3.78;3.47;;;6.30;99.90;;;;;;5082896;28;20024;-35
2023/01/27 12:16:41;;;;;;;3.28;2.97;;;6.30;99.90;;;;;;5083506;28;20035;-34
2023/01/27 12:19:16;;;;;;;3.35;3.05;;;6.40;99.90;;;;;;5081986;28;20034;-33
2023/01/27 12:21:48;;;;;;;4.45;3.67;;;6.40;99.90;;;;;;5082811;28;20479;-34
2023/01/27 12:24:23;;;;;;;3.78;3.45;;;6.40;99.90;;;;;;5082787;28;20024;-33
2023/01/27 12:26:51;;;;;;;4.90;4.13;;;6.40;99.90;;;;;;5083857;28;20028;-35
2023/01/27 12:29:39;;;;;;;4.63;4.10;;;6.50;99.90;;;;;;5084231;28;20036;-33
2023/01/27 12:32:17;;;;;;;5.25;3.95;;;6.50;99.90;;;;;;5083803;28;20020;-34
2023/01/27 12:34:47;;;;;;;4.93;3.88;;;6.50;99.90;;;;;;5083021;28;20155;-34
2023/01/27 12:37:29;;;;;;;5.50;4.00;;;6.50;99.90;;;;;;5083836;28;20036;-34
2023/01/27 12:40:06;;;;;;;3.92;3.63;;;6.60;99.90;;;;;;5083309;28;20020;-34
2023/01/27 12:43:01;;;;;;;4.93;4.00;;;6.50;99.90;;;;;;5084114;28;20115;-35
2023/01/27 12:45:39;;;;;;;5.07;4.00;;;6.60;99.90;;;;;;5084276;28;20132;-33
2023/01/27 12:48:07;;;;;;;4.13;3.72;;;6.60;99.90;;;;;;5083294;28;20044;-34
2023/01/27 12:50:50;;;;;;;3.90;3.60;;;6.60;99.90;;;;;;5083350;28;20176;-33
2023/01/27 12:53:26;;;;;;;3.87;3.57;;;6.60;99.90;;;;;;5083004;28;20039;-33
2023/01/27 12:56:10;;;;;;;5.43;3.90;;;6.60;99.90;;;;;;5082727;28;20294;-34
2023/01/27 12:58:40;;;;;;;4.18;3.80;;;6.60;99.90;;;;;;5083846;28;20097;-34
2023/01/27 13:01:25;;;;;;;4.72;4.03;;;6.60;99.90;;;;;;5082940;28;20028;-33
2023/01/27 13:03:57;;;;;;;6.55;4.22;;;6.60;99.90;;;;;;5083877;28;20040;-35
2023/01/27 13:06:32;;;;;;;5.18;4.07;;;6.50;99.90;;;;;;5084165;28;20479;-34
2023/01/27 13:09:00;;;;;;;4.18;3.80;;;6.50;99.90;;;;;;5082948;28;20040;-35
2023/01/27 13:11:37;;;;;;;4.40;4.00;;;6.50;99.90;;;;;;5083567;28;20051;-33
2023/01/27 13:14:07;;;;;;;4.45;3.70;;;6.50;99.90;;;;;;5082533;28;20053;-35
2023/01/27 13:16:32;;;;;;;4.70;3.90;;;6.40;99.90;;;;;;5082844;28;20115;-35
2023/01/27 13:19:00;;;;;;;4.30;3.90;;;6.50;99.90;;;;;;5083665;28;20032;-35
2023/01/27 13:21:36;;;;;;;5.72;4.20;;;6.50;99.90;;;;;;5082761;28;20038;-35
2023/01/27 13:24:14;;;;;;;4.43;3.97;;;6.40;99.90;;;;;;5083801;28;20020;-34
2023/01/27 13:26:40;;;;;;;4.05;3.75;;;6.50;99.90;;;;;;5083008;28;20082;-34
2023/01/27 13:29:08;;;;;;;5.13;3.63;;;6.40;99.90;;;;;;5082517;28;20043;-33
2023/01/27 13:31:48;;;;;;;5.10;3.90;;;6.50;99.90;;;;;;5082313;28;20055;-34
2023/01/27 13:34:38;;;;;;;5.57;4.90;;;6.40;99.90;;;;;;5081835;28;20777;-35
2023/01/27 13:37:23;;;;;;;5.03;4.32;;;6.40;99.90;;;;;;5082191;28;20028;-35
2023/01/27 13:40:03;;;;;;;3.90;3.55;;;6.40;99.90;;;;;;5083004;28;20040;-34